createdAt,value
2018-03-31T00:01:35.162Z,69736.73
2018-03-31T00:04:02.990Z,69744.47
2018-03-31T00:06:30.776Z,69746.59
2018-03-31T00:08:58.616Z,69746.09
2018-03-31T00:11:26.399Z,69742.47
2018-03-31T00:13:54.227Z,69743.77
2018-03-31T00:16:22.014Z,69756.94
2018-03-31T00:18:50.484Z,69763.14
2018-03-31T00:21:18.315Z,69770.70
2018-03-31T00:23:46.115Z,69774.70
2018-03-31T00:26:13.934Z,69782.56
2018-03-31T00:28:41.742Z,69790.94
2018-03-31T00:31:09.567Z,69793.65
2018-03-31T00:33:37.367Z,69789.13
2018-03-31T00:36:05.191Z,69786.59
2018-03-31T00:38:32.985Z,69781.88
2018-03-31T00:41:00.810Z,69784.29
2018-03-31T00:43:28.612Z,69781.66
2018-03-31T00:45:56.436Z,69789.63
2018-03-31T00:48:24.237Z,69797.45
2018-03-31T00:50:52.061Z,69795.67
2018-03-31T00:53:20.118Z,69794.26
2018-03-31T00:55:47.942Z,69787.80
2018-03-31T00:58:15.735Z,69755.63
2018-03-31T01:00:43.554Z,69743.77
2018-03-31T01:03:11.355Z,69742.55
2018-03-31T01:05:39.168Z,69736.83
2018-03-31T01:08:06.963Z,69728.52
2018-03-31T01:10:35.126Z,69734.02
2018-03-31T01:13:02.946Z,69719.44
2018-03-31T01:15:30.758Z,69734.94
2018-03-31T01:17:58.567Z,69744.77
2018-03-31T01:20:26.380Z,69746.09
2018-03-31T01:22:54.170Z,69745.38
2018-03-31T01:25:21.990Z,69741.44
2018-03-31T01:27:50.023Z,69759.63
2018-03-31T01:30:17.843Z,69760.53
2018-03-31T01:32:45.634Z,69775.33
2018-03-31T01:35:13.458Z,69770.40
2018-03-31T01:37:41.246Z,69771.61
2018-03-31T01:40:09.070Z,69762.38
2018-03-31T01:42:36.864Z,69754.31
2018-03-31T01:45:05.099Z,69747.89
2018-03-31T01:47:34.934Z,69740.45
2018-03-31T01:50:02.754Z,69741.26
2018-03-31T01:52:30.551Z,69740.75
2018-03-31T01:54:58.378Z,69734.83
2018-03-31T01:57:26.201Z,69736.45
2018-03-31T01:59:53.990Z,69728.99
2018-03-31T02:02:21.804Z,69733.22
2018-03-31T02:04:49.722Z,69732.91
2018-03-31T02:07:17.534Z,69728.81
2018-03-31T02:09:45.335Z,69724.80
2018-03-31T02:12:13.151Z,69717.16
2018-03-31T02:14:40.942Z,69720.97
2018-03-31T02:17:08.760Z,69716.05
2018-03-31T02:19:36.559Z,69722.16
2018-03-31T02:22:04.374Z,69715.54
2018-03-31T02:24:32.162Z,69714.42
2018-03-31T02:26:59.986Z,69710.43
2018-03-31T02:29:27.782Z,69704.79
2018-03-31T02:31:55.612Z,69690.11
2018-03-31T02:34:23.399Z,69690.43
2018-03-31T02:36:51.209Z,69694.14
2018-03-31T02:39:19.004Z,69683.58
2018-03-31T02:41:46.815Z,69678.27
2018-03-31T02:44:14.608Z,69685.00
2018-03-31T02:46:42.422Z,69678.67
2018-03-31T02:49:10.215Z,69682.89
2018-03-31T02:51:38.032Z,69683.20
2018-03-31T02:54:05.822Z,69669.45
2018-03-31T02:56:33.630Z,69669.14
2018-03-31T02:59:01.431Z,69676.58
2018-03-31T03:01:29.235Z,69670.13
2018-03-31T03:03:57.031Z,69675.46
2018-03-31T03:06:24.850Z,69669.24
2018-03-31T03:08:52.625Z,69660.17
2018-03-31T03:11:20.429Z,69661.00
2018-03-31T03:13:48.219Z,69654.18
2018-03-31T03:16:15.746Z,69652.95
2018-03-31T03:18:43.246Z,69655.17
2018-03-31T03:21:10.774Z,69649.48
2018-03-31T03:23:38.286Z,69648.55
2018-03-31T03:26:05.811Z,69645.41
2018-03-31T03:28:33.313Z,69642.11
2018-03-31T03:31:00.842Z,69651.68
2018-03-31T03:33:28.347Z,69647.94
2018-03-31T03:35:55.883Z,69641.80
2018-03-31T03:38:23.394Z,69631.48
2018-03-31T03:40:50.910Z,69621.23
2018-03-31T03:43:18.433Z,69620.02
2018-03-31T03:45:45.950Z,69622.24
2018-03-31T03:48:13.482Z,69614.81
2018-03-31T03:50:40.990Z,69608.90
2018-03-31T03:53:08.523Z,69602.26
2018-03-31T03:55:36.038Z,69590.75
2018-03-31T03:58:03.566Z,69587.13
2018-03-31T04:00:31.150Z,69591.34
2018-03-31T04:02:58.665Z,69587.30
2018-03-31T04:05:26.174Z,69592.55
2018-03-31T04:07:53.706Z,69582.20
2018-03-31T04:10:21.231Z,69582.60
2018-03-31T04:12:48.763Z,69570.66
2018-03-31T04:15:16.283Z,69561.94
2018-03-31T04:17:43.818Z,69559.31
2018-03-31T04:20:11.332Z,69559.42
2018-03-31T04:22:38.862Z,69551.97
2018-03-31T04:25:06.370Z,69566.08
2018-03-31T04:27:33.894Z,69566.77
2018-03-31T04:30:01.415Z,69571.27
2018-03-31T04:32:28.950Z,69566.86
2018-03-31T04:34:56.462Z,69567.75
2018-03-31T04:37:24.006Z,69565.25
2018-03-31T04:39:51.515Z,69570.38
2018-03-31T04:42:19.053Z,69564.24
2018-03-31T04:44:46.583Z,69562.84
2018-03-31T04:47:14.102Z,69567.47
2018-03-31T04:49:41.623Z,69564.55
2018-03-31T04:52:09.157Z,69564.44
2018-03-31T04:54:36.667Z,69564.24
2018-03-31T04:57:04.214Z,69559.12
2018-03-31T04:59:31.720Z,69559.22
2018-03-31T05:01:59.254Z,69556.01
2018-03-31T05:04:26.762Z,69557.70
2018-03-31T05:06:54.298Z,69558.30
2018-03-31T05:09:21.817Z,69553.70
2018-03-31T05:11:49.341Z,69554.19
2018-03-31T05:14:16.852Z,69550.70
2018-03-31T05:16:44.378Z,69540.43
2018-03-31T05:19:11.917Z,69530.91
2018-03-31T05:21:39.419Z,69534.54
2018-03-31T05:24:06.955Z,69523.69
2018-03-31T05:26:34.502Z,69528.59
2018-03-31T05:29:02.052Z,69543.56
2018-03-31T05:31:29.557Z,69543.03
2018-03-31T05:33:57.091Z,69539.24
2018-03-31T05:36:24.616Z,69541.64
2018-03-31T05:38:52.155Z,69537.13
2018-03-31T05:41:19.674Z,69553.69
2018-03-31T05:43:47.206Z,69551.56
2018-03-31T05:46:14.722Z,69557.80
2018-03-31T05:48:42.257Z,69562.42
2018-03-31T05:51:09.771Z,69569.37
2018-03-31T05:53:37.305Z,69558.11
2018-03-31T05:56:04.811Z,69569.64
2018-03-31T05:58:32.339Z,69565.03
2018-03-31T06:00:59.843Z,69565.55
2018-03-31T06:03:27.375Z,69552.28
2018-03-31T06:05:54.882Z,69553.98
2018-03-31T06:08:22.425Z,69562.55
2018-03-31T06:10:49.936Z,69554.09
2018-03-31T06:13:17.469Z,69555.70
2018-03-31T06:15:44.979Z,69556.31
2018-03-31T06:18:12.509Z,69563.55
2018-03-31T06:20:40.031Z,69542.95
2018-03-31T06:23:07.561Z,69544.05
2018-03-31T06:25:35.070Z,69542.66
2018-03-31T06:28:02.766Z,69535.13
2018-03-31T06:30:30.510Z,69535.02
2018-03-31T06:32:58.098Z,69532.73
2018-03-31T06:35:25.610Z,69523.28
2018-03-31T06:37:53.143Z,69526.11
2018-03-31T06:40:20.645Z,69517.28
2018-03-31T06:42:48.179Z,69507.76
2018-03-31T06:45:15.691Z,69513.67
2018-03-31T06:47:43.214Z,69521.49
2018-03-31T06:50:10.802Z,69520.80
2018-03-31T06:52:38.489Z,69523.51
2018-03-31T06:55:06.099Z,69521.80
2018-03-31T06:57:33.612Z,69522.80
2018-03-31T07:00:01.142Z,69516.77
2018-03-31T07:02:28.650Z,69512.98
2018-03-31T07:04:56.186Z,69500.72
2018-03-31T07:07:23.689Z,69510.56
2018-03-31T07:09:51.222Z,69511.97
2018-03-31T07:12:18.729Z,69508.84
2018-03-31T07:14:46.252Z,69501.42
2018-03-31T07:17:13.758Z,69505.86
2018-03-31T07:19:41.286Z,69499.03
2018-03-31T07:22:08.790Z,69489.48
2018-03-31T07:24:36.314Z,69499.23
2018-03-31T07:27:03.823Z,69502.31
2018-03-31T07:29:31.346Z,69504.25
2018-03-31T07:31:58.854Z,69502.45
2018-03-31T07:34:26.392Z,69501.33
2018-03-31T07:36:53.895Z,69495.02
2018-03-31T07:39:21.426Z,69493.32
2018-03-31T07:41:48.931Z,69489.89
2018-03-31T07:44:16.458Z,69488.18
2018-03-31T07:46:43.963Z,69489.20
2018-03-31T07:49:11.499Z,69494.94
2018-03-31T07:51:39.001Z,69490.02
2018-03-31T07:54:06.525Z,69486.59
2018-03-31T07:56:34.031Z,69499.42
2018-03-31T07:59:01.562Z,69494.41
2018-03-31T08:01:29.066Z,69488.09
2018-03-31T08:03:57.718Z,69481.59
2018-03-31T08:06:26.139Z,69491.81
2018-03-31T08:08:53.662Z,69489.51
2018-03-31T08:11:21.174Z,69495.42
2018-03-31T08:13:48.707Z,69488.50
2018-03-31T08:16:17.126Z,69478.77
2018-03-31T08:18:44.788Z,69480.88
2018-03-31T08:21:12.286Z,69487.52
2018-03-31T08:23:39.819Z,69480.38
2018-03-31T08:26:07.324Z,69475.86
2018-03-31T08:28:34.840Z,69471.55
2018-03-31T08:31:02.948Z,69464.73
2018-03-31T08:33:30.453Z,69462.94
2018-03-31T08:35:57.977Z,69465.86
2018-03-31T08:38:25.477Z,69465.94
2018-03-31T08:40:53.014Z,69471.66
2018-03-31T08:43:20.517Z,69461.33
2018-03-31T08:45:48.038Z,69460.64
2018-03-31T08:48:15.546Z,69438.67
2018-03-31T08:50:43.075Z,69447.11
2018-03-31T08:53:10.591Z,69452.52
2018-03-31T08:55:38.106Z,69458.24
2018-03-31T08:58:05.613Z,69465.44
2018-03-31T09:00:33.138Z,69474.08
2018-03-31T09:03:01.123Z,69464.63
2018-03-31T09:05:28.646Z,69463.42
2018-03-31T09:07:56.156Z,69465.64
2018-03-31T09:10:23.677Z,69450.80
2018-03-31T09:12:51.186Z,69453.60
2018-03-31T09:15:18.714Z,69468.48
2018-03-31T09:17:46.222Z,69464.95
2018-03-31T09:20:13.750Z,69455.02
2018-03-31T09:22:45.781Z,69452.09
2018-03-31T09:25:08.790Z,69457.52
2018-03-31T09:27:36.441Z,69458.82
2018-03-31T09:30:03.987Z,69456.48
2018-03-31T09:32:31.496Z,69463.23
2018-03-31T09:34:59.687Z,69473.56
2018-03-31T09:37:27.189Z,69489.05
2018-03-31T09:39:54.732Z,69483.88
2018-03-31T09:42:22.247Z,69479.08
2018-03-31T09:44:49.774Z,69467.94
2018-03-31T09:47:17.281Z,69469.16
2018-03-31T09:49:44.814Z,69456.00
2018-03-31T09:52:12.329Z,69464.85
2018-03-31T09:54:39.870Z,69461.84
2018-03-31T09:57:07.395Z,69467.15
2018-03-31T09:59:34.930Z,69467.15
2018-03-31T10:02:02.454Z,69477.67
2018-03-31T10:04:29.969Z,69472.15
2018-03-31T10:06:58.407Z,69479.59
2018-03-31T10:09:25.914Z,69476.77
2018-03-31T10:11:53.452Z,69469.33
2018-03-31T10:14:20.963Z,69478.58
2018-03-31T10:16:49.463Z,69469.85
2018-03-31T10:19:16.975Z,69461.23
2018-03-31T10:21:44.578Z,69464.45
2018-03-31T10:24:12.278Z,69462.84
2018-03-31T10:26:39.842Z,69466.63
2018-03-31T10:29:07.349Z,69472.47
2018-03-31T10:31:34.877Z,69465.94
2018-03-31T10:34:02.457Z,69481.48
2018-03-31T10:36:30.012Z,69502.03
2018-03-31T10:38:57.534Z,69503.72
2018-03-31T10:41:25.214Z,69496.33
2018-03-31T10:43:52.971Z,69497.23
2018-03-31T10:46:20.658Z,69493.12
2018-03-31T10:48:48.327Z,69497.81
2018-03-31T10:51:15.833Z,69492.72
2018-03-31T10:53:43.343Z,69497.53
2018-03-31T10:56:11.082Z,69495.09
2018-03-31T10:58:38.993Z,69474.75
2018-03-31T11:01:06.527Z,69465.23
2018-03-31T11:03:34.038Z,69481.81
2018-03-31T11:06:01.738Z,69469.45
2018-03-31T11:08:29.246Z,69459.13
2018-03-31T11:10:56.775Z,69454.89
2018-03-31T11:13:24.286Z,69455.42
2018-03-31T11:15:51.828Z,69461.24
2018-03-31T11:18:19.331Z,69463.23
2018-03-31T11:20:46.882Z,69468.86
2018-03-31T11:23:14.413Z,69462.23
2018-03-31T11:25:41.993Z,69461.84
2018-03-31T11:28:09.567Z,69465.03
2018-03-31T11:30:37.093Z,69472.23
2018-03-31T11:33:04.598Z,69479.47
2018-03-31T11:35:32.111Z,69484.98
2018-03-31T11:37:59.651Z,69482.38
2018-03-31T11:40:27.165Z,69478.38
2018-03-31T11:42:54.732Z,69482.19
2018-03-31T11:45:22.222Z,69478.68
2018-03-31T11:47:49.745Z,69474.85
2018-03-31T11:50:17.246Z,69473.08
2018-03-31T11:52:44.908Z,69468.86
2018-03-31T11:55:12.451Z,69452.41
2018-03-31T11:57:39.981Z,69457.03
2018-03-31T12:00:07.491Z,69470.95
2018-03-31T12:02:35.022Z,69475.84
2018-03-31T12:05:02.539Z,69477.47
2018-03-31T12:07:30.059Z,69470.76
2018-03-31T12:09:57.567Z,69472.45
2018-03-31T12:12:25.102Z,69476.67
2018-03-31T12:14:52.611Z,69477.27
2018-03-31T12:17:20.144Z,69474.08
2018-03-31T12:19:47.669Z,69474.28
2018-03-31T12:22:15.239Z,69477.89
2018-03-31T12:24:42.849Z,69485.20
2018-03-31T12:27:10.532Z,69477.88
2018-03-31T12:29:37.990Z,69466.84
2018-03-31T12:32:05.513Z,69461.73
2018-03-31T12:34:33.053Z,69454.19
2018-03-31T12:37:00.582Z,69452.11
2018-03-31T12:39:28.091Z,69466.24
2018-03-31T12:41:55.626Z,69485.59
2018-03-31T12:44:23.151Z,69472.75
2018-03-31T12:46:51.656Z,69471.84
2018-03-31T12:49:19.167Z,69475.16
2018-03-31T12:51:46.728Z,69471.84
2018-03-31T12:54:14.197Z,69551.69
2018-03-31T12:56:41.729Z,69512.55
2018-03-31T12:59:09.237Z,69502.72
2018-03-31T13:01:36.762Z,69544.56
2018-03-31T13:04:04.271Z,69574.48
2018-03-31T13:06:31.929Z,69597.66
2018-03-31T13:08:59.553Z,69581.09
2018-03-31T13:11:27.282Z,69551.08
2018-03-31T13:13:54.819Z,69532.33
2018-03-31T13:16:22.337Z,69531.03
2018-03-31T13:18:49.853Z,69512.23
2018-03-31T13:21:18.329Z,69509.36
2018-03-31T13:23:45.859Z,69521.21
2018-03-31T13:26:13.367Z,69508.06
2018-03-31T13:28:40.903Z,69501.70
2018-03-31T13:31:08.419Z,69508.32
2018-03-31T13:33:35.954Z,69528.72
2018-03-31T13:36:03.502Z,69523.30
2018-03-31T13:38:31.035Z,69516.67
2018-03-31T13:40:58.551Z,69521.39
2018-03-31T13:43:26.075Z,69521.29
2018-03-31T13:45:53.595Z,69519.67
2018-03-31T13:48:21.127Z,69527.10
2018-03-31T13:50:48.654Z,69524.30
2018-03-31T13:53:16.208Z,69527.04
2018-03-31T13:55:43.702Z,69534.44
2018-03-31T13:58:11.230Z,69532.10
2018-03-31T14:00:38.758Z,69522.98
2018-03-31T14:03:06.498Z,69528.31
2018-03-31T14:05:34.196Z,69521.59
2018-03-31T14:08:01.919Z,69519.59
2018-03-31T14:10:29.608Z,69516.77
2018-03-31T14:12:57.511Z,69500.22
2018-03-31T14:15:26.094Z,69509.15
2018-03-31T14:17:53.788Z,69511.14
2018-03-31T14:20:21.512Z,69519.07
2018-03-31T14:22:49.217Z,69519.78
2018-03-31T14:25:16.754Z,69520.80
2018-03-31T14:27:44.283Z,69523.69
2018-03-31T14:30:11.790Z,69538.86
2018-03-31T14:32:39.354Z,69534.64
2018-03-31T14:35:06.886Z,69514.77
2018-03-31T14:37:34.415Z,69513.67
2018-03-31T14:40:01.933Z,69515.28
2018-03-31T14:42:30.032Z,69526.91
2018-03-31T14:44:57.534Z,69537.85
2018-03-31T14:47:25.078Z,69540.47
2018-03-31T14:49:52.583Z,69535.02
2018-03-31T14:52:20.131Z,69537.55
2018-03-31T14:54:47.667Z,69512.97
2018-03-31T14:57:15.159Z,69516.29
2018-03-31T14:59:42.687Z,69501.84
2018-03-31T15:02:10.191Z,69511.97
2018-03-31T15:04:37.717Z,69510.78
2018-03-31T15:07:05.218Z,69511.37
2018-03-31T15:09:32.757Z,69510.66
2018-03-31T15:12:00.266Z,69491.28
2018-03-31T15:14:27.794Z,69491.42
2018-03-31T15:16:55.306Z,69493.32
2018-03-31T15:19:22.838Z,69502.23
2018-03-31T15:21:51.200Z,69504.45
2018-03-31T15:24:18.730Z,69506.16
2018-03-31T15:26:46.230Z,69495.02
2018-03-31T15:29:13.758Z,69499.42
2018-03-31T15:31:41.261Z,69508.16
2018-03-31T15:34:08.803Z,69502.45
2018-03-31T15:36:36.320Z,69501.64
2018-03-31T15:39:03.842Z,69501.93
2018-03-31T15:41:31.357Z,69507.16
2018-03-31T15:43:58.906Z,69500.94
2018-03-31T15:46:27.230Z,69493.72
2018-03-31T15:48:54.754Z,69489.11
2018-03-31T15:51:22.276Z,69498.34
2018-03-31T15:53:49.797Z,69500.72
2018-03-31T15:56:17.306Z,69510.45
2018-03-31T15:58:44.858Z,69501.73
2018-03-31T16:01:12.388Z,69504.03
2018-03-31T16:03:39.921Z,69515.69
2018-03-31T16:06:07.427Z,69503.64
2018-03-31T16:08:34.954Z,69497.53
2018-03-31T16:11:02.458Z,69491.28
2018-03-31T16:13:29.985Z,69494.42
2018-03-31T16:15:57.495Z,69492.02
2018-03-31T16:18:25.643Z,69506.55
2018-03-31T16:20:53.146Z,69497.23
2018-03-31T16:23:20.834Z,69486.28
2018-03-31T16:25:48.338Z,69478.06
2018-03-31T16:28:15.844Z,69478.78
2018-03-31T16:30:43.378Z,69466.13
2018-03-31T16:33:10.886Z,69480.07
2018-03-31T16:35:38.414Z,69489.20
2018-03-31T16:38:05.925Z,69487.29
2018-03-31T16:40:33.463Z,69473.14
2018-03-31T16:43:00.958Z,69470.16
2018-03-31T16:45:28.486Z,69469.85
2018-03-31T16:47:55.986Z,69462.33
2018-03-31T16:50:23.518Z,69458.42
2018-03-31T16:52:51.037Z,69463.23
2018-03-31T16:55:18.558Z,69464.15
2018-03-31T16:57:46.066Z,69473.68
2018-03-31T17:00:13.600Z,69470.05
2018-03-31T17:02:41.106Z,69462.03
2018-03-31T17:05:08.634Z,69455.81
2018-03-31T17:07:36.138Z,69451.81
2018-03-31T17:10:03.665Z,69449.11
2018-03-31T17:12:31.184Z,69450.60
2018-03-31T17:14:58.707Z,69455.63
2018-03-31T17:17:26.215Z,69469.16
2018-03-31T17:19:56.605Z,69463.03
2018-03-31T17:22:24.618Z,69458.63
2018-03-31T17:24:52.149Z,69444.59
2018-03-31T17:27:20.023Z,69454.72
2018-03-31T17:29:47.529Z,69455.50
2018-03-31T17:32:15.030Z,69455.52
2018-03-31T17:34:42.554Z,69453.41
2018-03-31T17:37:10.062Z,69463.34
2018-03-31T17:39:37.594Z,69448.28
2018-03-31T17:42:05.098Z,69428.57
2018-03-31T17:44:32.631Z,69429.78
2018-03-31T17:47:00.130Z,69419.52
2018-03-31T17:49:27.659Z,69426.25
2018-03-31T17:51:55.157Z,69433.95
2018-03-31T17:54:22.683Z,69432.08
2018-03-31T17:56:50.190Z,69413.31
2018-03-31T17:59:17.717Z,69401.61
2018-03-31T18:01:45.228Z,69422.87
2018-03-31T18:04:12.734Z,69416.33
2018-03-31T18:06:41.258Z,69399.80
2018-03-31T18:09:08.765Z,69399.19
2018-03-31T18:11:36.289Z,69394.98
2018-03-31T18:14:03.793Z,69394.09
2018-03-31T18:16:31.331Z,69383.98
2018-03-31T18:18:58.851Z,69393.39
2018-03-31T18:21:26.374Z,69389.36
2018-03-31T18:23:53.889Z,69381.06
2018-03-31T18:26:21.414Z,69377.45
2018-03-31T18:28:48.918Z,69385.59
2018-03-31T18:31:16.446Z,69370.05
2018-03-31T18:33:43.949Z,69365.55
2018-03-31T18:36:11.474Z,69354.62
2018-03-31T18:38:38.981Z,69345.60
2018-03-31T18:41:06.506Z,69358.63
2018-03-31T18:43:34.018Z,69351.41
2018-03-31T18:46:01.546Z,69335.30
2018-03-31T18:48:29.056Z,69330.39
2018-03-31T18:50:56.586Z,69339.30
2018-03-31T18:53:24.094Z,69341.02
2018-03-31T18:55:51.632Z,69340.42
2018-03-31T18:58:19.138Z,69337.91
2018-03-31T19:00:46.662Z,69336.80
2018-03-31T19:03:14.166Z,69348.72
2018-03-31T19:05:41.694Z,69360.66
2018-03-31T19:08:09.206Z,69329.17
2018-03-31T19:10:36.730Z,69315.75
2018-03-31T19:13:04.238Z,69330.17
2018-03-31T19:15:31.765Z,69339.81
2018-03-31T19:17:59.271Z,69344.33
2018-03-31T19:20:26.801Z,69347.93
2018-03-31T19:22:54.301Z,69348.41
2018-03-31T19:25:27.462Z,69341.41
2018-03-31T19:27:54.969Z,69348.72
2018-03-31T19:30:22.492Z,69360.73
2018-03-31T19:32:49.993Z,69361.20
2018-03-31T19:35:18.550Z,69354.84
2018-03-31T19:37:46.058Z,69350.71
2018-03-31T19:40:13.614Z,69355.84
2018-03-31T19:42:41.118Z,69362.65
2018-03-31T19:45:08.651Z,69355.22
2018-03-31T19:47:36.183Z,69349.92
2018-03-31T19:50:03.762Z,69344.81
2018-03-31T19:52:31.235Z,69347.13
2018-03-31T19:54:58.742Z,69347.11
2018-03-31T19:57:26.275Z,69354.02
2018-03-31T19:59:53.777Z,69361.44
2018-03-31T20:02:21.308Z,69369.16
2018-03-31T20:04:48.819Z,69375.66
2018-03-31T20:07:16.355Z,69364.14
2018-03-31T20:09:43.866Z,69348.31
2018-03-31T20:12:11.405Z,69338.28
2018-03-31T20:14:38.930Z,69335.30
2018-03-31T20:17:06.458Z,69341.50
2018-03-31T20:19:33.970Z,69341.41
2018-03-31T20:22:01.499Z,69335.00
2018-03-31T20:24:28.997Z,69312.98
2018-03-31T20:26:56.522Z,69298.66
2018-03-31T20:29:24.034Z,69308.86
2018-03-31T20:31:51.569Z,69317.67
2018-03-31T20:34:19.082Z,69319.49
2018-03-31T20:36:46.604Z,69304.17
2018-03-31T20:39:14.834Z,69305.37
2018-03-31T20:41:42.368Z,69285.75
2018-03-31T20:44:09.880Z,69293.45
2018-03-31T20:46:37.406Z,69286.75
2018-03-31T20:49:04.917Z,69286.14
2018-03-31T20:51:32.443Z,69290.05
2018-03-31T20:53:59.956Z,69280.42
2018-03-31T20:56:27.521Z,69263.69
2018-03-31T20:58:54.990Z,69268.20
2018-03-31T21:01:22.525Z,69252.19
2018-03-31T21:03:50.037Z,69251.41
2018-03-31T21:06:18.471Z,69247.69
2018-03-31T21:08:45.979Z,69251.70
2018-03-31T21:11:13.506Z,69257.00
2018-03-31T21:13:41.014Z,69246.59
2018-03-31T21:16:08.550Z,69237.88
2018-03-31T21:18:36.109Z,69237.48
2018-03-31T21:21:03.605Z,69230.28
2018-03-31T21:23:31.133Z,69234.70
2018-03-31T21:25:58.643Z,69233.78
2018-03-31T21:28:27.234Z,69233.50
2018-03-31T21:30:54.743Z,69237.18
2018-03-31T21:33:22.273Z,69239.30
2018-03-31T21:35:49.783Z,69248.60
2018-03-31T21:38:17.311Z,69253.02
2018-03-31T21:40:44.816Z,69251.88
2018-03-31T21:43:12.343Z,69273.04
2018-03-31T21:45:39.873Z,69269.30
2018-03-31T21:48:07.402Z,69265.30
2018-03-31T21:50:34.941Z,69255.01
2018-03-31T21:53:02.486Z,69241.99
2018-03-31T21:55:30.028Z,69228.67
2018-03-31T21:57:57.528Z,69231.48
2018-03-31T22:00:25.030Z,69245.20
2018-03-31T22:02:52.559Z,69246.59
2018-03-31T22:05:20.067Z,69240.17
2018-03-31T22:07:47.591Z,69234.19
2018-03-31T22:10:15.090Z,69233.70
2018-03-31T22:12:43.605Z,69222.69
2018-03-31T22:15:16.650Z,69210.76
2018-03-31T22:17:44.170Z,69227.69
2018-03-31T22:20:11.678Z,69231.97
2018-03-31T22:22:39.206Z,69246.90
2018-03-31T22:25:06.709Z,69245.20
2018-03-31T22:27:34.235Z,69256.49
2018-03-31T22:30:01.785Z,69250.98
2018-03-31T22:32:29.308Z,69245.29
2018-03-31T22:34:57.028Z,69239.78
2018-03-31T22:37:24.558Z,69258.31
2018-03-31T22:39:52.069Z,69266.81
2018-03-31T22:42:19.589Z,69265.30
2018-03-31T22:44:47.106Z,69271.53
2018-03-31T22:47:14.639Z,69269.59
2018-03-31T22:49:42.142Z,69272.84
2018-03-31T22:52:09.665Z,69262.91
2018-03-31T22:54:37.166Z,69256.19
2018-03-31T22:57:04.705Z,69262.61
2018-03-31T22:59:32.209Z,69254.80
2018-03-31T23:01:59.713Z,69249.50
2018-03-31T23:04:27.530Z,69241.89
2018-03-31T23:06:55.314Z,69228.49
2018-03-31T23:09:23.134Z,69224.59
2018-03-31T23:11:50.922Z,69222.17
2018-03-31T23:14:18.741Z,69221.77
2018-03-31T23:16:46.521Z,69216.27
2018-03-31T23:19:14.326Z,69207.77
2018-03-31T23:21:42.106Z,69197.88
2018-03-31T23:24:09.905Z,69200.69
2018-03-31T23:26:37.682Z,69201.09
2018-03-31T23:29:05.490Z,69208.47
2018-03-31T23:31:33.265Z,69208.28
2018-03-31T23:34:01.066Z,69216.98
2018-03-31T23:36:28.849Z,69221.29
2018-03-31T23:38:56.370Z,69218.69
2018-03-31T23:41:23.874Z,69215.49
2018-03-31T23:43:51.397Z,69217.41
2018-03-31T23:46:18.902Z,69212.89
2018-03-31T23:48:46.426Z,69212.98
2018-03-31T23:51:13.934Z,69210.38
2018-03-31T23:53:41.448Z,69198.58
2018-03-31T23:56:08.962Z,69191.58
2018-03-31T23:58:36.486Z,69200.69
